Time;durP1;ratioP1;P1;durP2;ratioP2;P2;SDS_P1;SDS_P2;PMS_P1;PMS_P2;Temp;Humidity;BMP_temperature;BMP_pressure;BME280_temperature;BME280_humidity;BME280_pressure;Samples;Min_cycle;Max_cycle;Signal;HPM_P1;HPM_P2
2022/11/04 00:01:41;;;;;;;3.47;3.17;;;12.20;89.10;;;;;;4899292;29;20044;-80
2022/11/04 00:04:08;;;;;;;5.88;3.10;;;12.20;89.00;;;;;;4881526;29;20070;-80
2022/11/04 00:06:34;;;;;;;3.53;3.10;;;12.20;89.10;;;;;;4881777;29;20032;-81
2022/11/04 00:09:01;;;;;;;4.65;3.30;;;12.20;89.10;;;;;;4882426;29;20029;-80
2022/11/04 00:14:15;;;;;;;5.90;3.22;;;12.30;89.10;;;;;;4898985;29;20511;-81
2022/11/04 00:19:26;;;;;;;4.65;3.60;;;12.30;89.10;;;;;;4895712;29;20040;-79
2022/11/04 00:29:56;;;;;;;6.10;4.70;;;12.20;89.10;;;;;;4896675;29;20057;-80
2022/11/04 00:35:11;;;;;;;6.32;5.60;;;12.20;89.20;;;;;;4879618;29;20032;-80
2022/11/04 00:37:37;;;;;;;7.70;6.25;;;12.20;89.20;;;;;;4880030;29;20089;-80
2022/11/04 00:40:04;;;;;;;7.95;6.68;;;12.20;89.20;;;;;;4865945;29;20036;-80
2022/11/04 00:42:29;;;;;;;9.05;7.75;;;12.20;89.20;;;;;;4887481;29;20040;-80
2022/11/04 00:44:55;;;;;;;8.88;7.97;;;12.20;89.20;;;;;;4867349;29;20021;-80
2022/11/04 00:47:21;;;;;;;9.38;8.00;;;12.20;89.30;;;;;;4883013;29;20037;-81
2022/11/04 00:49:46;;;;;;;10.35;8.23;;;12.10;89.30;;;;;;4864920;29;20033;-82
2022/11/04 00:52:12;;;;;;;9.73;8.48;;;12.10;89.30;;;;;;4865920;29;20565;-80
2022/11/04 00:54:37;;;;;;;10.40;8.10;;;12.10;89.40;;;;;;4885387;29;20056;-81
2022/11/04 00:57:03;;;;;;;7.60;6.70;;;12.00;89.30;;;;;;4865051;29;20116;-80
2022/11/04 00:59:28;;;;;;;6.45;5.82;;;12.00;89.40;;;;;;4863118;29;20029;-82
2022/11/04 01:01:55;;;;;;;6.13;5.32;;;12.00;89.50;;;;;;4880733;29;20112;-81
2022/11/04 01:04:20;;;;;;;5.38;4.38;;;11.90;89.30;;;;;;4862404;29;20029;-81
2022/11/04 01:06:46;;;;;;;4.47;3.65;;;11.90;89.20;;;;;;4862449;29;20477;-81
2022/11/04 01:09:13;;;;;;;3.20;2.90;;;11.80;89.10;;;;;;4862607;29;20096;-80
2022/11/04 01:11:38;;;;;;;4.65;2.90;;;11.70;89.10;;;;;;4862438;29;20474;-80
2022/11/04 01:14:04;;;;;;;3.47;2.28;;;11.70;89.10;;;;;;4862811;29;20029;-81
2022/11/04 01:16:30;;;;;;;2.75;2.45;;;11.70;89.10;;;;;;4862874;29;20286;-81
2022/11/04 01:18:56;;;;;;;2.90;2.22;;;11.60;89.00;;;;;;4863372;29;20060;-81
2022/11/04 01:21:22;;;;;;;2.97;2.00;;;11.60;88.90;;;;;;4863129;29;20171;-80
2022/11/04 01:23:48;;;;;;;2.00;1.80;;;11.50;88.80;;;;;;4862355;29;20037;-80
2022/11/04 01:26:20;;;;;;;2.30;1.88;;;11.50;88.70;;;;;;4861882;29;20081;-80
2022/11/04 01:28:46;;;;;;;2.00;1.80;;;11.50;89.20;;;;;;4862790;29;20385;-80
2022/11/04 01:31:14;;;;;;;1.45;1.20;;;11.40;88.60;;;;;;4862437;29;20477;-80
2022/11/04 01:33:40;;;;;;;2.60;1.52;;;11.40;88.60;;;;;;4862161;29;20512;-81
2022/11/04 01:36:07;;;;;;;1.35;1.25;;;11.30;88.90;;;;;;4861867;29;20040;-80
2022/11/04 01:38:33;;;;;;;1.30;1.20;;;11.30;88.20;;;;;;4861750;29;20076;-80
2022/11/04 01:40:59;;;;;;;1.08;1.05;;;11.30;88.20;;;;;;4862039;29;20033;-80
2022/11/04 01:43:49;;;;;;;1.05;1.00;;;11.30;88.20;;;;;;4862503;29;20060;-79
2022/11/04 01:46:29;;;;;;;1.23;1.13;;;11.30;88.20;;;;;;4880205;29;20032;-80
2022/11/04 01:49:04;;;;;;;1.35;1.17;;;11.20;88.00;;;;;;4863701;29;20560;-80
2022/11/04 01:51:34;;;;;;;1.50;1.40;;;11.20;88.00;;;;;;4862736;29;20047;-80
2022/11/04 01:54:02;;;;;;;2.20;1.60;;;11.20;88.00;;;;;;4862618;29;20040;-81
2022/11/04 01:56:28;;;;;;;2.55;2.10;;;11.20;88.00;;;;;;4879842;29;20393;-81
2022/11/04 01:58:58;;;;;;;3.47;2.05;;;11.20;88.00;;;;;;4862450;29;20107;-81
2022/11/04 02:01:24;;;;;;;2.58;2.10;;;11.20;87.90;;;;;;4863551;29;20025;-82
2022/11/04 02:06:43;;;;;;;3.40;2.90;;;11.20;87.90;;;;;;4879025;29;20116;-81
2022/11/04 02:09:10;;;;;;;3.45;3.13;;;11.20;87.90;;;;;;4861685;29;20052;-80
2022/11/04 02:14:21;;;;;;;6.13;4.63;;;11.30;87.90;;;;;;4878236;29;20076;-80
2022/11/04 02:16:48;;;;;;;6.72;5.18;;;11.30;87.90;;;;;;4862378;29;20473;-81
2022/11/04 02:19:22;;;;;;;9.23;6.10;;;11.30;87.90;;;;;;4865052;29;20512;-80
2022/11/04 02:21:54;;;;;;;8.20;7.20;;;11.30;87.90;;;;;;4881591;29;20396;-80
2022/11/04 02:24:47;;;;;;;8.18;7.38;;;11.40;88.00;;;;;;4864836;29;20025;-80
2022/11/04 02:27:31;;;;;;;9.98;8.40;;;11.40;88.00;;;;;;4864618;29;20164;-80
2022/11/04 02:30:17;;;;;;;10.55;8.90;;;11.40;88.00;;;;;;4864617;29;20537;-80
2022/11/04 02:33:05;;;;;;;10.82;9.35;;;11.40;87.90;;;;;;4864534;29;20492;-79
2022/11/04 02:35:36;;;;;;;12.35;10.00;;;11.50;88.00;;;;;;4864340;29;20434;-80
2022/11/04 02:38:27;;;;;;;12.07;9.88;;;11.50;88.00;;;;;;4881173;29;20444;-81
2022/11/04 02:41:28;;;;;;;11.35;9.73;;;11.50;88.00;;;;;;4864339;29;20128;-80
2022/11/04 02:44:15;;;;;;;13.93;11.65;;;11.50;88.00;;;;;;4880834;29;20029;-80
2022/11/04 02:46:58;;;;;;;14.05;11.57;;;11.50;88.00;;;;;;4864294;29;20035;-80
2022/11/04 02:49:57;;;;;;;15.43;12.98;;;11.40;88.00;;;;;;4864400;29;20040;-80
2022/11/04 02:52:38;;;;;;;15.18;12.18;;;11.40;88.00;;;;;;4864121;29;20553;-81
2022/11/04 02:55:15;;;;;;;14.20;12.70;;;11.40;88.10;;;;;;4864118;29;20484;-81
2022/11/04 02:57:43;;;;;;;13.68;12.20;;;11.40;88.10;;;;;;4864215;29;20112;-81
2022/11/04 03:00:12;;;;;;;15.98;13.73;;;11.40;88.10;;;;;;4864205;29;20025;-79
2022/11/04 03:02:59;;;;;;;14.57;12.95;;;11.40;88.10;;;;;;4864093;29;20140;-80
2022/11/04 03:05:33;;;;;;;18.60;14.15;;;11.40;88.20;;;;;;4878131;29;20113;-80
2022/11/04 03:08:07;;;;;;;15.73;13.90;;;11.40;88.20;;;;;;4863989;29;20041;-81
2022/11/04 03:10:34;;;;;;;16.45;13.52;;;11.40;88.20;;;;;;4863986;29;20097;-79
2022/11/04 03:13:18;;;;;;;16.88;14.20;;;11.40;88.20;;;;;;4863887;29;20041;-81
2022/11/04 03:15:52;;;;;;;14.80;12.85;;;11.30;88.20;;;;;;4880658;29;20033;-80
2022/11/04 03:18:25;;;;;;;15.23;12.73;;;11.40;88.30;;;;;;4863790;29;20511;-80
2022/11/04 03:20:55;;;;;;;15.73;13.30;;;11.40;88.30;;;;;;4863651;29;20036;-81
2022/11/04 03:23:21;;;;;;;13.50;11.80;;;11.40;88.30;;;;;;4880326;29;20040;-81
2022/11/04 03:25:56;;;;;;;16.65;13.05;;;11.50;88.30;;;;;;4863565;29;20029;-81
2022/11/04 03:28:54;;;;;;;16.42;12.80;;;11.50;88.30;;;;;;4862369;29;20512;-80
2022/11/04 03:31:26;;;;;;;16.15;12.85;;;11.50;88.20;;;;;;4863496;29;20040;-81
2022/11/04 03:33:53;;;;;;;16.60;13.85;;;11.50;88.10;;;;;;4863733;29;20120;-81
2022/11/04 03:36:20;;;;;;;14.90;12.82;;;11.50;88.10;;;;;;4863479;29;20406;-81
2022/11/04 03:38:46;;;;;;;15.13;12.25;;;11.50;88.10;;;;;;4863714;29;20053;-80
2022/11/04 03:41:29;;;;;;;14.60;12.10;;;11.50;88.10;;;;;;4863126;29;20532;-81
2022/11/04 03:43:57;;;;;;;17.08;12.30;;;11.50;88.10;;;;;;4880063;29;20025;-81
2022/11/04 03:46:24;;;;;;;16.38;12.30;;;11.50;88.10;;;;;;4863215;29;20485;-81
2022/11/04 03:48:52;;;;;;;16.80;12.30;;;11.50;88.10;;;;;;4863410;29;20036;-81
2022/11/04 03:51:17;;;;;;;13.95;11.80;;;11.40;88.10;;;;;;4880021;29;20401;-81
2022/11/04 03:53:43;;;;;;;16.45;11.63;;;11.50;88.20;;;;;;4863141;29;20032;-81
2022/11/04 03:56:14;;;;;;;14.00;11.75;;;11.40;88.20;;;;;;4879826;29;20136;-81
2022/11/04 03:58:58;;;;;;;13.35;11.82;;;11.40;88.00;;;;;;4862974;29;20401;-81
2022/11/04 04:01:41;;;;;;;15.68;11.15;;;11.40;88.00;;;;;;4879627;29;20120;-81
2022/11/04 04:04:16;;;;;;;16.50;12.38;;;11.40;88.00;;;;;;4862939;29;20184;-80
2022/11/04 04:06:42;;;;;;;14.07;11.40;;;11.40;87.90;;;;;;4862636;29;20045;-80
2022/11/04 04:09:18;;;;;;;15.50;10.68;;;11.30;88.00;;;;;;4862743;29;20044;-80
2022/11/04 04:11:52;;;;;;;15.63;11.73;;;11.30;88.00;;;;;;4862670;29;20025;-80
2022/11/04 04:14:40;;;;;;;16.23;11.75;;;11.30;87.90;;;;;;4862636;29;20033;-80
2022/11/04 04:17:25;;;;;;;13.18;10.63;;;11.30;88.00;;;;;;4862879;29;20492;-81
2022/11/04 04:19:55;;;;;;;12.90;10.15;;;11.20;88.00;;;;;;4862355;29;20033;-79
2022/11/04 04:22:35;;;;;;;13.90;10.50;;;11.20;88.00;;;;;;4862292;29;20552;-81
2022/11/04 04:27:51;;;;;;;13.05;9.15;;;11.20;88.10;;;;;;4879317;29;20080;-80
2022/11/04 04:30:17;;;;;;;12.18;8.50;;;11.20;88.00;;;;;;4878982;29;20121;-80
2022/11/04 04:32:45;;;;;;;12.45;8.20;;;11.20;88.00;;;;;;4862172;29;20119;-80
2022/11/04 04:44:58;;;;;;;9.55;7.30;;;11.10;87.90;;;;;;4878957;29;20552;-80
2022/11/04 04:46:28;;;;;;;10.40;6.28;;;11.10;88.00;;;;;;4879001;29;20044;-80
2022/11/04 04:48:54;;;;;;;6.50;5.47;;;11.10;88.00;;;;;;4862023;29;20025;-80
2022/11/04 04:51:20;;;;;;;7.68;5.32;;;11.10;87.90;;;;;;4862078;29;20065;-81
2022/11/04 04:53:46;;;;;;;7.13;5.35;;;11.20;87.90;;;;;;4861876;29;20037;-80
2022/11/04 04:56:11;;;;;;;7.88;5.07;;;11.20;87.90;;;;;;4861879;29;20025;-80
2022/11/04 04:58:37;;;;;;;8.07;5.03;;;11.10;87.90;;;;;;4861868;29;20033;-80
2022/11/04 05:01:03;;;;;;;6.43;5.32;;;11.20;87.90;;;;;;4861788;29;20052;-80
2022/11/04 05:03:29;;;;;;;10.27;6.72;;;11.20;87.90;;;;;;4861784;29;20393;-80
2022/11/04 05:05:57;;;;;;;9.15;5.50;;;11.10;87.80;;;;;;4861606;29;20044;-80
2022/11/04 05:08:23;;;;;;;10.32;5.20;;;11.10;87.80;;;;;;4861805;29;20044;-80
2022/11/04 05:10:48;;;;;;;8.27;5.65;;;11.00;87.90;;;;;;4861868;29;20037;-80
2022/11/04 05:13:28;;;;;;;10.55;5.88;;;11.00;88.00;;;;;;4878475;29;20057;-80
2022/11/04 05:15:54;;;;;;;9.30;5.88;;;10.90;88.10;;;;;;4861585;29;20029;-80
2022/11/04 05:18:19;;;;;;;8.55;6.00;;;10.80;88.20;;;;;;4861418;29;20057;-80
2022/11/04 05:20:45;;;;;;;7.85;5.40;;;10.80;88.20;;;;;;4878049;29;20438;-79
2022/11/04 05:23:12;;;;;;;11.05;5.68;;;10.70;88.20;;;;;;4861412;29;20120;-80
2022/11/04 05:25:38;;;;;;;7.80;5.20;;;10.70;88.40;;;;;;4861187;29;20093;-79
2022/11/04 05:28:05;;;;;;;8.52;5.57;;;10.60;88.40;;;;;;4861135;29;20064;-80
2022/11/04 05:30:30;;;;;;;8.57;5.22;;;10.50;88.50;;;;;;4860908;29;20064;-80
2022/11/04 05:32:56;;;;;;;7.85;5.25;;;10.50;89.20;;;;;;4878081;29;20489;-81
2022/11/04 05:35:22;;;;;;;8.75;4.90;;;10.50;88.70;;;;;;4861445;29;20109;-81
2022/11/04 05:37:47;;;;;;;7.82;4.80;;;10.50;88.70;;;;;;4861396;29;20040;-81
2022/11/04 05:40:13;;;;;;;7.07;4.88;;;10.40;88.70;;;;;;4861258;29;20390;-81
2022/11/04 05:42:39;;;;;;;8.30;4.32;;;10.40;88.70;;;;;;4861328;29;20033;-81
2022/11/04 05:45:05;;;;;;;9.65;4.90;;;10.40;88.80;;;;;;4861030;29;20136;-79
2022/11/04 05:47:30;;;;;;;7.57;5.20;;;10.50;88.80;;;;;;4860949;29;20047;-80
2022/11/04 05:49:56;;;;;;;6.45;4.60;;;10.50;88.70;;;;;;4860879;29;20029;-80
2022/11/04 05:52:21;;;;;;;7.80;4.65;;;10.50;88.50;;;;;;4862825;29;20029;-80
2022/11/04 05:54:47;;;;;;;7.93;5.03;;;10.50;88.60;;;;;;4864814;29;20057;-80
2022/11/04 05:57:13;;;;;;;6.82;4.43;;;10.50;88.50;;;;;;4864721;29;20037;-80
2022/11/04 05:59:38;;;;;;;7.28;4.63;;;10.50;88.50;;;;;;4881794;29;20037;-80
2022/11/04 06:02:04;;;;;;;7.25;4.50;;;10.50;88.60;;;;;;4864768;29;20098;-80
2022/11/04 06:04:30;;;;;;;6.43;4.35;;;10.50;88.50;;;;;;4881415;29;20033;-80
2022/11/04 06:06:56;;;;;;;7.47;4.50;;;10.40;88.40;;;;;;4881364;29;20564;-81
2022/11/04 06:09:37;;;;;;;7.22;4.45;;;10.50;88.40;;;;;;4864983;29;20033;-81
2022/11/04 06:12:05;;;;;;;9.10;4.72;;;10.50;88.50;;;;;;4864672;29;20036;-82
2022/11/04 06:14:30;;;;;;;7.65;4.15;;;10.50;88.50;;;;;;4864578;29;20097;-80
2022/11/04 06:16:56;;;;;;;7.30;4.25;;;10.50;88.30;;;;;;4881659;29;20037;-80
2022/11/04 06:19:22;;;;;;;6.40;4.18;;;10.50;88.20;;;;;;4864376;29;20053;-79
2022/11/04 06:21:48;;;;;;;7.35;4.18;;;10.50;88.20;;;;;;4864594;29;20037;-80
2022/11/04 06:24:13;;;;;;;5.57;3.90;;;10.50;88.20;;;;;;4861683;29;20037;-81
2022/11/04 06:26:39;;;;;;;8.65;3.78;;;10.50;88.20;;;;;;4864369;29;20029;-81
2022/11/04 06:29:04;;;;;;;5.47;3.67;;;10.60;88.20;;;;;;4880955;29;20029;-81
2022/11/04 06:31:30;;;;;;;7.63;3.80;;;10.50;88.10;;;;;;4865345;29;20512;-80
2022/11/04 06:33:55;;;;;;;7.80;4.32;;;10.50;88.10;;;;;;4861909;29;20442;-81
2022/11/04 06:36:24;;;;;;;5.75;3.65;;;10.60;88.20;;;;;;4864481;29;20029;-80
2022/11/04 06:38:50;;;;;;;7.72;3.28;;;10.50;88.10;;;;;;4881101;29;20089;-81
2022/11/04 06:41:16;;;;;;;6.80;3.45;;;10.40;88.20;;;;;;4864451;29;20385;-80
2022/11/04 06:43:42;;;;;;;6.97;3.60;;;10.40;88.40;;;;;;4864142;29;20060;-81
2022/11/04 06:46:23;;;;;;;5.32;3.40;;;10.40;88.50;;;;;;4880883;29;20067;-80
2022/11/04 06:48:48;;;;;;;8.02;3.70;;;10.30;88.40;;;;;;4864091;29;20074;-80
2022/11/04 06:51:14;;;;;;;6.22;3.58;;;10.30;88.50;;;;;;4864110;29;20037;-81
2022/11/04 06:53:40;;;;;;;8.05;4.78;;;10.30;88.50;;;;;;4880980;29;20044;-80
2022/11/04 06:56:06;;;;;;;8.95;3.92;;;10.40;88.60;;;;;;4880525;29;20481;-81
2022/11/04 06:58:32;;;;;;;5.65;3.67;;;10.40;88.50;;;;;;4863751;29;20096;-80
2022/11/04 07:00:57;;;;;;;8.13;4.75;;;10.30;88.50;;;;;;4863477;29;20036;-80
2022/11/04 07:03:23;;;;;;;7.20;3.90;;;10.40;88.50;;;;;;4863014;29;20081;-79
2022/11/04 07:05:49;;;;;;;7.25;3.60;;;10.30;88.50;;;;;;4880390;29;20088;-80
2022/11/04 07:08:14;;;;;;;8.73;3.53;;;10.30;88.60;;;;;;4863647;29;20033;-81
2022/11/04 07:10:40;;;;;;;6.40;3.08;;;10.30;88.60;;;;;;4863519;29;20033;-80
2022/11/04 07:13:06;;;;;;;8.57;3.50;;;10.30;88.70;;;;;;4880482;29;20036;-80
2022/11/04 07:15:34;;;;;;;4.97;3.10;;;10.30;88.70;;;;;;4863659;29;20500;-80
2022/11/04 07:18:03;;;;;;;8.52;3.20;;;10.30;88.70;;;;;;4863536;29;20063;-79
2022/11/04 07:20:28;;;;;;;5.22;3.30;;;10.30;88.70;;;;;;4863586;29;20029;-80
2022/11/04 07:22:54;;;;;;;5.18;3.03;;;10.30;89.30;;;;;;4863437;29;20043;-80
2022/11/04 07:25:20;;;;;;;5.35;2.80;;;10.30;88.60;;;;;;4863574;29;20037;-80
2022/11/04 07:27:45;;;;;;;5.72;3.33;;;10.30;88.60;;;;;;4863619;29;20412;-80
2022/11/04 07:30:11;;;;;;;6.20;3.03;;;10.30;88.60;;;;;;4863437;29;20033;-81
2022/11/04 07:32:37;;;;;;;5.72;3.25;;;10.30;88.60;;;;;;4880007;29;20033;-80
2022/11/04 07:35:03;;;;;;;5.53;3.00;;;10.30;88.60;;;;;;4880047;29;20037;-80
2022/11/04 07:37:28;;;;;;;8.13;3.10;;;10.30;88.60;;;;;;4880070;29;20507;-81
2022/11/04 07:39:54;;;;;;;4.93;3.10;;;10.30;88.50;;;;;;4880274;29;20033;-80
2022/11/04 07:42:20;;;;;;;9.98;2.97;;;10.30;88.50;;;;;;4863344;29;20421;-80
2022/11/04 07:44:46;;;;;;;6.47;2.90;;;10.30;88.50;;;;;;4863055;29;20108;-81
2022/11/04 07:47:12;;;;;;;7.72;3.22;;;10.30;88.50;;;;;;4880055;29;20025;-81
2022/11/04 07:49:37;;;;;;;6.32;3.17;;;10.40;88.50;;;;;;4880117;29;20400;-81
2022/11/04 07:52:03;;;;;;;7.78;3.40;;;10.30;89.10;;;;;;4863052;29;20036;-81
2022/11/04 07:54:29;;;;;;;6.78;3.15;;;10.40;88.50;;;;;;4863136;29;20552;-80
2022/11/04 07:56:54;;;;;;;4.68;2.95;;;10.40;88.40;;;;;;4862839;29;20055;-80
2022/11/04 07:59:20;;;;;;;7.38;3.50;;;10.40;88.40;;;;;;4863121;29;20040;-80
2022/11/04 08:01:45;;;;;;;9.07;4.57;;;10.40;88.30;;;;;;4862911;29;20033;-80
2022/11/04 08:04:11;;;;;;;8.65;3.88;;;10.50;88.40;;;;;;4862664;29;20037;-80
2022/11/04 08:06:36;;;;;;;5.40;3.28;;;10.50;88.30;;;;;;4862605;29;20041;-80
2022/11/04 08:09:02;;;;;;;9.95;3.50;;;10.50;88.20;;;;;;4864366;29;20025;-82
2022/11/04 08:11:28;;;;;;;7.85;3.13;;;10.50;88.20;;;;;;4867098;29;20033;-79
2022/11/04 08:13:54;;;;;;;5.85;3.05;;;10.50;88.20;;;;;;4864524;29;20025;-79
2022/11/04 08:16:22;;;;;;;6.65;2.90;;;10.50;88.10;;;;;;4881314;29;20033;-79
2022/11/04 08:18:51;;;;;;;7.13;3.38;;;10.50;88.00;;;;;;4866775;29;20041;-82
2022/11/04 08:21:17;;;;;;;7.97;3.25;;;10.50;88.00;;;;;;4863260;29;20060;-83
2022/11/04 08:23:45;;;;;;;5.07;3.00;;;10.60;88.00;;;;;;4862993;29;20052;-82
2022/11/04 08:26:22;;;;;;;7.47;2.75;;;10.60;88.00;;;;;;4863396;29;20101;-80
2022/11/04 08:28:51;;;;;;;7.90;2.83;;;10.60;88.00;;;;;;4863361;29;20040;-82
2022/11/04 08:31:20;;;;;;;6.15;2.72;;;10.70;87.90;;;;;;4862906;29;20109;-82
2022/11/04 08:33:46;;;;;;;5.03;2.92;;;10.70;87.80;;;;;;4879237;29;20025;-79
2022/11/04 08:36:25;;;;;;;7.32;3.05;;;10.80;87.70;;;;;;4882091;29;20068;-78
2022/11/04 08:38:51;;;;;;;3.65;2.50;;;10.90;87.80;;;;;;4892222;29;20048;-78
2022/11/04 08:41:19;;;;;;;6.30;2.80;;;10.90;87.50;;;;;;4881462;29;20084;-79
2022/11/04 08:43:46;;;;;;;6.03;3.20;;;10.90;87.50;;;;;;4879175;29;20399;-83
2022/11/04 08:46:15;;;;;;;7.45;3.00;;;10.90;87.50;;;;;;4863106;29;20033;-83
2022/11/04 08:48:41;;;;;;;6.43;2.95;;;11.00;87.40;;;;;;4862901;29;20504;-83
2022/11/04 08:51:14;;;;;;;7.53;3.00;;;11.00;87.40;;;;;;4862818;29;20033;-84
2022/11/04 08:53:39;;;;;;;7.22;3.15;;;11.10;87.30;;;;;;4863129;29;20040;-80
2022/11/04 08:56:30;;;;;;;20.88;4.28;;;11.10;87.30;;;;;;4862957;29;20032;-80
2022/11/04 08:58:57;;;;;;;10.30;3.28;;;11.10;87.10;;;;;;4861797;29;20043;-79
2022/11/04 09:01:25;;;;;;;5.63;3.10;;;11.10;87.00;;;;;;4862076;29;20100;-80
2022/11/04 09:03:50;;;;;;;6.65;3.10;;;11.20;86.90;;;;;;4878820;29;20040;-80
2022/11/04 09:06:26;;;;;;;5.13;2.88;;;11.20;86.90;;;;;;4863457;29;20572;-80
2022/11/04 09:08:55;;;;;;;6.57;3.42;;;11.30;86.90;;;;;;4863817;29;20036;-81
2022/11/04 09:11:22;;;;;;;4.38;2.65;;;11.30;86.80;;;;;;4863040;29;20379;-80
2022/11/04 09:13:47;;;;;;;6.25;3.25;;;11.30;86.70;;;;;;4861867;29;20029;-80
2022/11/04 09:16:16;;;;;;;6.60;3.40;;;11.30;86.70;;;;;;4861981;29;20040;-81
2022/11/04 09:18:41;;;;;;;9.75;4.00;;;11.30;86.60;;;;;;4861675;29;20048;-81
2022/11/04 09:21:09;;;;;;;8.73;3.70;;;11.30;86.50;;;;;;4878863;29;20031;-80
2022/11/04 09:23:36;;;;;;;8.15;3.42;;;11.40;86.60;;;;;;4862565;29;20112;-81
2022/11/04 09:26:07;;;;;;;10.30;3.47;;;11.40;86.40;;;;;;4876290;29;20048;-80
2022/11/04 09:28:33;;;;;;;9.82;3.45;;;11.40;86.50;;;;;;4862605;29;20211;-81
2022/11/04 09:31:02;;;;;;;7.47;3.00;;;11.50;86.50;;;;;;4862687;29;20178;-80
2022/11/04 09:33:28;;;;;;;9.07;3.72;;;11.50;86.50;;;;;;4862188;29;20032;-80
2022/11/04 09:35:55;;;;;;;6.00;3.50;;;11.50;86.40;;;;;;4862121;29;20040;-79
2022/11/04 09:38:21;;;;;;;7.82;3.88;;;11.50;86.40;;;;;;4862353;29;20116;-80
2022/11/04 09:40:49;;;;;;;5.95;3.63;;;11.60;86.30;;;;;;4878967;29;20082;-80
2022/11/04 09:43:24;;;;;;;12.68;4.30;;;11.60;86.20;;;;;;4879105;29;20425;-80
2022/11/04 09:45:49;;;;;;;12.13;5.28;;;11.60;86.70;;;;;;4862641;29;20060;-80
2022/11/04 09:48:30;;;;;;;6.47;3.90;;;11.70;86.00;;;;;;4878726;29;20097;-80
2022/11/04 09:50:59;;;;;;;8.10;4.10;;;11.80;86.00;;;;;;4862080;29;20068;-80
2022/11/04 09:53:46;;;;;;;7.70;4.30;;;11.80;85.90;;;;;;4861627;29;20101;-80
2022/11/04 09:56:22;;;;;;;8.77;4.20;;;11.80;85.80;;;;;;4862534;29;20115;-80
2022/11/04 09:58:49;;;;;;;8.52;4.55;;;11.80;85.70;;;;;;4878752;29;20033;-80
2022/11/04 10:01:18;;;;;;;10.30;4.93;;;11.80;85.80;;;;;;4862024;29;20021;-79
2022/11/04 10:04:10;;;;;;;8.45;5.40;;;11.80;85.80;;;;;;4879213;29;20041;-79
2022/11/04 10:06:50;;;;;;;10.10;6.03;;;11.80;85.70;;;;;;4879527;29;20071;-80
2022/11/04 10:09:51;;;;;;;12.10;5.65;;;11.80;85.60;;;;;;4863021;29;20076;-80
2022/11/04 10:12:51;;;;;;;7.90;5.40;;;11.90;85.60;;;;;;4862509;29;20033;-80
2022/11/04 10:15:35;;;;;;;9.10;5.88;;;11.90;85.50;;;;;;4872484;29;20139;-80
2022/11/04 10:18:28;;;;;;;7.82;5.25;;;12.00;85.50;;;;;;4861048;29;20100;-80
2022/11/04 10:21:30;;;;;;;10.90;5.88;;;12.00;85.20;;;;;;4860937;29;20037;-80
2022/11/04 10:24:14;;;;;;;8.52;5.38;;;12.10;85.30;;;;;;4877781;29;20077;-79
2022/11/04 10:27:08;;;;;;;11.77;5.65;;;12.20;85.20;;;;;;4861654;29;20044;-80
2022/11/04 10:29:42;;;;;;;9.82;5.05;;;12.30;85.20;;;;;;4861320;29;20033;-80
2022/11/04 10:32:20;;;;;;;9.93;5.80;;;12.30;85.00;;;;;;4877927;29;20064;-79
2022/11/04 10:34:59;;;;;;;10.23;6.28;;;12.40;85.00;;;;;;4877934;29;20084;-79
2022/11/04 10:37:25;;;;;;;9.18;6.10;;;12.40;84.90;;;;;;4859897;29;20132;-80
2022/11/04 10:39:58;;;;;;;12.63;6.05;;;12.50;84.90;;;;;;4864385;29;20036;-81
2022/11/04 10:42:25;;;;;;;12.90;6.88;;;12.50;84.80;;;;;;4864600;29;20026;-80
2022/11/04 10:44:52;;;;;;;9.95;6.65;;;12.50;84.70;;;;;;4864160;29;20037;-80
2022/11/04 10:47:40;;;;;;;12.52;6.30;;;12.50;84.60;;;;;;4864807;29;20029;-80
2022/11/04 10:50:36;;;;;;;11.60;6.32;;;12.50;84.50;;;;;;4861641;29;20045;-81
2022/11/04 10:53:26;;;;;;;10.13;6.72;;;12.50;84.40;;;;;;4859090;29;20449;-80
2022/11/04 10:56:13;;;;;;;9.82;7.07;;;12.50;84.30;;;;;;4863548;29;20045;-80
2022/11/04 10:58:45;;;;;;;11.90;7.40;;;12.50;84.20;;;;;;4880980;29;20029;-81
2022/11/04 11:01:32;;;;;;;9.82;6.25;;;12.40;84.20;;;;;;4864828;29;20037;-80
2022/11/04 11:03:58;;;;;;;9.80;6.32;;;12.40;84.40;;;;;;4863846;29;20505;-81
2022/11/04 11:06:26;;;;;;;10.35;6.18;;;12.40;84.30;;;;;;4863889;29;20049;-80
2022/11/04 11:08:57;;;;;;;8.82;6.30;;;12.40;85.00;;;;;;4881370;29;20037;-81
2022/11/04 11:11:36;;;;;;;10.90;6.80;;;12.40;84.40;;;;;;4881959;29;20052;-81
2022/11/04 11:14:01;;;;;;;9.88;6.38;;;12.40;84.20;;;;;;4864185;29;20059;-81
2022/11/04 11:16:30;;;;;;;8.00;6.13;;;12.40;84.20;;;;;;4881440;29;20037;-81
2022/11/04 11:19:11;;;;;;;8.25;6.40;;;12.40;84.20;;;;;;4864649;29;20056;-81
2022/11/04 11:21:46;;;;;;;9.18;6.93;;;12.40;84.20;;;;;;4884248;29;20036;-81
2022/11/04 11:24:19;;;;;;;9.02;6.95;;;12.40;84.20;;;;;;4864780;29;20037;-81
2022/11/04 11:26:48;;;;;;;9.43;6.80;;;12.40;84.00;;;;;;4867148;29;20039;-82
2022/11/04 11:29:20;;;;;;;11.07;6.78;;;12.50;84.10;;;;;;4882384;29;20061;-81
2022/11/04 11:31:46;;;;;;;11.73;7.60;;;12.50;83.90;;;;;;4865432;29;20500;-81
2022/11/04 11:34:25;;;;;;;13.50;7.65;;;12.50;83.70;;;;;;4864933;29;20033;-82
2022/11/04 11:36:54;;;;;;;11.45;7.25;;;12.50;83.80;;;;;;4882280;29;20047;-82
2022/11/04 11:39:22;;;;;;;12.07;7.45;;;12.50;84.50;;;;;;4881304;29;20037;-82
2022/11/04 11:42:02;;;;;;;11.48;7.60;;;12.50;83.90;;;;;;4865570;29;20028;-81
2022/11/04 11:44:37;;;;;;;12.45;6.63;;;12.60;83.90;;;;;;4866682;29;20033;-82
2022/11/04 11:47:17;;;;;;;10.27;7.03;;;12.60;83.80;;;;;;4885489;29;20056;-83
2022/11/04 11:49:43;;;;;;;11.95;7.13;;;12.70;83.80;;;;;;4866090;29;20512;-81
2022/11/04 11:52:36;;;;;;;8.60;6.65;;;12.80;83.70;;;;;;4864672;29;20029;-81
2022/11/04 11:55:21;;;;;;;9.57;6.85;;;12.90;83.50;;;;;;4884549;29;20461;-80
2022/11/04 11:58:11;;;;;;;12.27;7.75;;;12.90;83.20;;;;;;4883894;29;20048;-81
2022/11/04 12:00:45;;;;;;;10.35;7.00;;;12.90;83.00;;;;;;4882937;29;20033;-81
2022/11/04 12:03:36;;;;;;;9.73;6.80;;;13.00;83.00;;;;;;4865767;29;20504;-81
2022/11/04 12:06:20;;;;;;;7.72;6.75;;;13.00;82.90;;;;;;4871601;29;20057;-82
2022/11/04 12:09:00;;;;;;;9.63;6.82;;;13.20;82.60;;;;;;4874830;29;20041;-81
2022/11/04 12:11:37;;;;;;;9.57;6.88;;;13.20;82.50;;;;;;4887171;29;20068;-81
2022/11/04 12:14:26;;;;;;;9.15;6.57;;;13.30;82.40;;;;;;4871925;29;20097;-81
2022/11/04 12:17:04;;;;;;;11.40;7.22;;;13.30;82.30;;;;;;4889990;29;20037;-82
2022/11/04 12:19:54;;;;;;;13.00;8.23;;;13.30;82.10;;;;;;4867575;29;20052;-82
2022/11/04 12:22:54;;;;;;;14.18;8.52;;;13.30;81.80;;;;;;4870009;29;20120;-82
2022/11/04 12:25:35;;;;;;;12.23;7.53;;;13.30;82.00;;;;;;4872039;29;20128;-82
2022/11/04 12:28:24;;;;;;;9.65;7.38;;;13.30;82.10;;;;;;4869897;29;20091;-81
2022/11/04 12:31:05;;;;;;;12.82;8.73;;;13.30;82.00;;;;;;4872229;29;20056;-81
2022/11/04 12:34:08;;;;;;;11.90;8.70;;;13.30;81.80;;;;;;4872212;29;20123;-81
2022/11/04 12:36:58;;;;;;;11.57;8.05;;;13.30;81.90;;;;;;4868487;29;20029;-81
2022/11/04 12:39:36;;;;;;;10.07;7.88;;;13.30;81.70;;;;;;4891724;29;20033;-81
2022/11/04 12:42:25;;;;;;;13.13;7.72;;;13.30;81.70;;;;;;4872192;29;20033;-81
2022/11/04 12:45:03;;;;;;;8.77;7.55;;;13.30;81.50;;;;;;4869569;29;20053;-81
2022/11/04 12:47:36;;;;;;;11.43;8.13;;;13.30;81.40;;;;;;4869343;29;20033;-81
2022/11/04 12:51:15;;;;;;;11.40;8.57;;;13.30;81.50;;;;;;4868434;29;20033;-81
2022/11/04 12:53:59;;;;;;;8.93;7.93;;;13.30;81.60;;;;;;4870081;29;20052;-81
2022/11/04 12:56:49;;;;;;;11.82;8.82;;;13.40;81.60;;;;;;4873857;29;20047;-81
2022/11/04 12:59:40;;;;;;;12.82;8.57;;;13.40;81.50;;;;;;4870965;29;20055;-81
2022/11/04 13:02:22;;;;;;;11.23;8.25;;;13.50;81.30;;;;;;4890867;29;20061;-81
2022/11/04 13:04:57;;;;;;;10.27;8.02;;;13.40;81.40;;;;;;4875013;29;20029;-80
2022/11/04 13:07:44;;;;;;;12.20;8.52;;;13.50;81.30;;;;;;4869225;29;20080;-80
2022/11/04 13:34:10;;;;;;;13.40;8.48;;;13.50;80.60;;;;;;4846274;29;20032;-81
2022/11/04 13:36:45;;;;;;;;;;;13.50;80.70;;;;;;4827927;29;20054;-81
2022/11/04 13:39:33;;;;;;;12.25;8.07;;;13.50;80.70;;;;;;4863680;29;19915;-81
2022/11/04 13:42:01;;;;;;;9.27;7.80;;;13.50;80.70;;;;;;4881179;29;20074;-81
2022/11/04 13:44:42;;;;;;;12.43;8.30;;;13.40;80.70;;;;;;4864099;29;20123;-81
2022/11/04 13:47:31;;;;;;;10.65;8.50;;;13.40;80.80;;;;;;4865880;29;20036;-82
2022/11/04 13:49:59;;;;;;;12.13;8.55;;;13.40;80.90;;;;;;4867230;29;20033;-81
2022/11/04 13:52:29;;;;;;;9.85;7.53;;;13.40;81.00;;;;;;4866991;29;20556;-81
2022/11/04 13:55:01;;;;;;;10.98;7.93;;;13.50;81.00;;;;;;4882457;29;20063;-81
2022/11/04 13:57:51;;;;;;;9.10;7.13;;;13.40;80.90;;;;;;4863281;29;20040;-81
2022/11/04 14:00:38;;;;;;;10.98;7.43;;;13.50;80.80;;;;;;4866189;29;20037;-81
2022/11/04 14:03:26;;;;;;;10.88;6.97;;;13.50;80.80;;;;;;4865623;29;20029;-82
2022/11/04 14:06:04;;;;;;;9.70;7.22;;;13.40;80.70;;;;;;4865669;29;20493;-81
2022/11/04 14:08:31;;;;;;;10.18;7.45;;;13.50;80.80;;;;;;4881895;29;20033;-80